<?xml version="1.0" encoding="UTF-8"?><gpx version="1.0"><name>FlightAirMap GPX Feed</name><trk><name>AAL1632 American Airlines | N336TM B737 MAX 8 (B38M) | KORD - KCLT</name><number>1</number><trkseg><trkpt lat="41.9734" lon="-87.901"><ele>671.65</ele><time>2026-05-01T23:34:45+00:00</time></trkpt><trkpt lat="41.972" lon="-87.903"><ele>671.62</ele><time>2026-05-01T23:39:55+00:00</time></trkpt><trkpt lat="41.9704" lon="-87.9233"><ele>670.81</ele><time>2026-05-01T23:44:35+00:00</time></trkpt><trkpt lat="41.9365" lon="-87.8302"><ele>4037.81</ele><time>2026-05-01T23:49:55+00:00</time></trkpt><trkpt lat="41.6968" lon="-87.7176"><ele>13875.4</ele><time>2026-05-01T23:54:59+00:00</time></trkpt><trkpt lat="40.6028" lon="-87.3734"><ele>32953.3</ele><time>2026-05-02T00:04:59+00:00</time></trkpt><trkpt lat="40.0427" lon="-86.9538"><ele>34999.3</ele><time>2026-05-02T00:09:33+00:00</time></trkpt><trkpt lat="39.6008" lon="-86.2691"><ele>35001</ele><time>2026-05-02T00:15:24+00:00</time></trkpt><trkpt lat="39.2206" lon="-85.4719"><ele>35000.5</ele><time>2026-05-02T00:19:39+00:00</time></trkpt><trkpt lat="38.834" lon="-84.6813"><ele>35001.8</ele><time>2026-05-02T00:24:44+00:00</time></trkpt><trkpt lat="38.3946" lon="-83.9657"><ele>34997.1</ele><time>2026-05-02T00:29:51+00:00</time></trkpt><trkpt lat="37.9144" lon="-83.326"><ele>35002</ele><time>2026-05-02T00:34:54+00:00</time></trkpt><trkpt lat="37.4284" lon="-82.6996"><ele>34194.3</ele><time>2026-05-02T00:39:42+00:00</time></trkpt><trkpt lat="36.8679" lon="-82.104"><ele>28214.1</ele><time>2026-05-02T00:44:46+00:00</time></trkpt><trkpt lat="36.0679" lon="-81.5603"><ele>17998.2</ele><time>2026-05-02T00:49:51+00:00</time></trkpt><trkpt lat="35.7043" lon="-81.3164"><ele>11001.6</ele><time>2026-05-02T00:54:59+00:00</time></trkpt><trkpt lat="35.5809" lon="-80.9415"><ele>5991.1</ele><time>2026-05-02T01:00:05+00:00</time></trkpt><trkpt lat="35.3395" lon="-80.9461"><ele>3029.3</ele><time>2026-05-02T01:04:42+00:00</time></trkpt><trkpt lat="35.2102" lon="-80.9362"><ele>718.52</ele><time>2026-05-02T01:09:49+00:00</time></trkpt></trkseg></trk></gpx>